createdAt,value
2019-04-11T00:02:08.821Z,16.33
2019-04-11T00:04:35.122Z,16.50
2019-04-11T00:07:01.287Z,18.07
2019-04-11T00:09:27.517Z,17.43
2019-04-11T00:11:54.430Z,17.10
2019-04-11T00:14:21.990Z,17.20
2019-04-11T00:16:49.756Z,16.73
2019-04-11T00:19:16.129Z,17.47
2019-04-11T00:21:42.386Z,17.83
2019-04-11T00:24:08.619Z,17.23
2019-04-11T00:26:36.078Z,17.73
2019-04-11T00:29:03.847Z,17.83
2019-04-11T00:31:30.653Z,18.63
2019-04-11T00:33:57.011Z,17.23
2019-04-11T00:36:24.215Z,18.17
2019-04-11T00:38:50.637Z,16.40
2019-04-11T00:41:17.586Z,19.13
2019-04-11T00:43:45.359Z,17.73
2019-04-11T00:46:12.001Z,16.23
2019-04-11T00:48:38.224Z,18.23
2019-04-11T00:51:04.619Z,15.30
2019-04-11T00:53:31.030Z,15.20
2019-04-11T00:55:57.217Z,14.50
2019-04-11T00:58:23.561Z,15.80
2019-04-11T01:00:51.312Z,15.90
2019-04-11T01:03:17.961Z,15.43
2019-04-11T01:05:44.329Z,15.87
2019-04-11T01:08:11.500Z,16.63
2019-04-11T01:10:37.938Z,17.27
2019-04-11T01:13:05.079Z,17.60
2019-04-11T01:15:36.467Z,16.43
2019-04-11T01:18:03.622Z,16.50
2019-04-11T01:20:29.984Z,16.83
2019-04-11T01:22:56.455Z,16.37
2019-04-11T01:25:22.905Z,17.43
2019-04-11T01:27:50.004Z,15.80
2019-04-11T01:30:18.626Z,15.50
2019-04-11T01:32:44.848Z,15.80
2019-04-11T01:35:13.060Z,16.00
2019-04-11T01:37:39.852Z,15.03
2019-04-11T01:40:07.664Z,14.97
2019-04-11T01:42:34.059Z,17.13
2019-04-11T01:45:01.068Z,15.57
2019-04-11T01:47:32.982Z,15.53
2019-04-11T01:49:59.287Z,14.57
2019-04-11T01:52:26.529Z,15.97
2019-04-11T01:54:52.946Z,17.13
2019-04-11T01:57:20.053Z,16.37
2019-04-11T01:59:46.500Z,16.23
2019-04-11T02:02:23.864Z,15.70
2019-04-11T02:04:55.066Z,14.20
2019-04-11T02:07:21.250Z,15.63
2019-04-11T02:09:48.467Z,15.20
2019-04-11T02:12:16.259Z,15.40
2019-04-11T02:14:43.823Z,14.67
2019-04-11T02:17:10.431Z,14.10
2019-04-11T02:19:36.804Z,14.73
2019-04-11T02:22:06.327Z,15.63
2019-04-11T02:24:36.192Z,14.87
2019-04-11T02:27:04.583Z,15.50
2019-04-11T02:29:30.832Z,14.50
2019-04-11T02:31:59.419Z,15.70
2019-04-11T02:34:25.433Z,15.33
2019-04-11T02:36:53.554Z,14.17
2019-04-11T02:39:20.916Z,12.57
2019-04-11T02:41:48.221Z,12.30
2019-04-11T02:44:32.052Z,12.60
2019-04-11T02:46:53.028Z,11.00
2019-04-11T02:49:10.873Z,11.00
2019-04-11T02:51:38.726Z,10.87
2019-04-11T02:54:07.023Z,12.90
2019-04-11T02:56:35.754Z,13.67
2019-04-11T02:59:03.040Z,13.63
2019-04-11T03:01:31.944Z,13.90
2019-04-11T03:03:59.141Z,13.30
2019-04-11T03:06:26.458Z,13.17
2019-04-11T03:08:55.032Z,12.47
2019-04-11T03:11:21.900Z,12.87
2019-04-11T03:13:54.659Z,12.60
2019-04-11T03:16:32.849Z,12.93
2019-04-11T03:19:08.473Z,11.17
2019-04-11T03:21:21.621Z,13.43
2019-04-11T03:23:46.787Z,13.17
2019-04-11T03:26:14.098Z,12.63
2019-04-11T03:28:46.267Z,14.00
2019-04-11T03:31:41.686Z,12.90
2019-04-11T03:36:59.924Z,12.63
2019-04-11T03:38:55.470Z,12.27
2019-04-11T03:41:20.409Z,12.50
2019-04-11T03:43:43.259Z,12.43
2019-04-11T03:46:20.295Z,13.50
2019-04-11T03:48:40.510Z,15.30
2019-04-11T03:51:02.470Z,14.30
2019-04-11T03:53:30.000Z,14.67
2019-04-11T03:56:01.498Z,13.63
2019-04-11T03:58:29.461Z,12.83
2019-04-11T04:00:59.440Z,13.10
2019-04-11T04:03:26.701Z,13.13
2019-04-11T04:05:55.120Z,12.43
2019-04-11T04:08:22.564Z,13.30
2019-04-11T04:11:03.993Z,11.60
2019-04-11T04:13:31.906Z,10.87
2019-04-11T04:16:12.145Z,12.10
2019-04-11T04:18:45.799Z,12.27
2019-04-11T04:21:17.458Z,13.40
2019-04-11T04:23:45.533Z,14.53
2019-04-11T04:26:14.679Z,13.50
2019-04-11T04:28:41.062Z,13.13
2019-04-11T04:31:09.142Z,14.43
2019-04-11T04:33:36.345Z,14.20
2019-04-11T04:36:07.693Z,15.50
2019-04-11T04:38:33.790Z,14.20
2019-04-11T04:41:16.727Z,12.47
2019-04-11T04:43:31.568Z,13.57
2019-04-11T04:46:17.320Z,14.60
2019-04-11T04:48:27.227Z,13.43
2019-04-11T04:50:56.824Z,12.03
2019-04-11T04:53:24.037Z,11.10
2019-04-11T04:55:52.207Z,11.50
2019-04-11T04:58:20.202Z,11.93
2019-04-11T05:00:48.443Z,12.57
2019-04-11T05:03:15.921Z,12.37
2019-04-11T05:05:42.502Z,13.23
2019-04-11T05:08:10.658Z,12.07
2019-04-11T05:10:38.181Z,13.07
2019-04-11T05:13:05.663Z,12.83
2019-04-11T05:15:32.452Z,15.10
2019-04-11T05:17:59.860Z,12.60
2019-04-11T05:20:26.190Z,12.30
2019-04-11T05:22:52.448Z,11.87
2019-04-11T05:25:18.580Z,13.50
2019-04-11T05:27:45.435Z,16.20
2019-04-11T05:30:11.805Z,15.40
2019-04-11T05:32:38.085Z,16.30
2019-04-11T05:35:05.031Z,16.77
2019-04-11T05:37:31.409Z,15.93
2019-04-11T05:39:58.587Z,14.60
2019-04-11T05:42:26.986Z,16.80
2019-04-11T05:44:53.018Z,16.27
2019-04-11T05:47:19.999Z,16.17
2019-04-11T05:50:01.066Z,15.77
2019-04-11T05:52:30.782Z,20.20
2019-04-11T05:54:58.464Z,18.73
2019-04-11T05:57:33.576Z,15.93
2019-04-11T05:59:54.816Z,17.73
2019-04-11T06:02:29.372Z,17.13
2019-04-11T06:04:57.794Z,22.13
2019-04-11T06:07:27.176Z,27.13
2019-04-11T06:09:56.517Z,41.27
2019-04-11T06:12:25.461Z,16.27
2019-04-11T06:14:53.653Z,16.60
2019-04-11T06:17:21.785Z,15.90
2019-04-11T06:19:53.562Z,20.00
2019-04-11T06:22:19.975Z,16.87
2019-04-11T06:24:50.846Z,17.73
2019-04-11T06:27:22.169Z,16.90
2019-04-11T06:29:56.037Z,17.70
2019-04-11T06:32:42.135Z,18.83
2019-04-11T06:35:26.138Z,19.63
2019-04-11T06:37:58.301Z,18.37
2019-04-11T06:40:27.717Z,20.53
2019-04-11T06:42:56.070Z,22.67
2019-04-11T06:45:41.781Z,19.47
2019-04-11T06:48:16.115Z,19.70
2019-04-11T06:50:44.283Z,18.50
2019-04-11T06:53:11.462Z,21.47
2019-04-11T06:55:42.695Z,18.73
2019-04-11T06:58:10.874Z,19.73
2019-04-11T07:00:39.158Z,20.90
2019-04-11T07:03:17.397Z,20.13
2019-04-11T07:05:39.146Z,20.20
2019-04-11T07:08:07.561Z,18.73
2019-04-11T07:10:38.962Z,19.90
2019-04-11T07:13:10.012Z,19.57
2019-04-11T07:15:38.141Z,20.03
2019-04-11T07:18:24.802Z,20.73
2019-04-11T07:20:56.300Z,19.60
2019-04-11T07:23:43.955Z,20.30
2019-04-11T07:26:27.333Z,19.97
2019-04-11T07:28:56.523Z,20.00
2019-04-11T07:31:25.453Z,18.73
2019-04-11T07:33:56.591Z,21.53
2019-04-11T07:36:41.509Z,20.10
2019-04-11T07:39:09.973Z,20.73
2019-04-11T07:41:39.258Z,20.23
2019-04-11T07:44:08.565Z,20.63
2019-04-11T07:46:53.705Z,21.67
2019-04-11T07:49:24.611Z,20.20
2019-04-11T07:51:52.805Z,21.00
2019-04-11T07:54:20.158Z,20.70
2019-04-11T07:56:57.246Z,19.90
2019-04-11T07:59:34.159Z,20.33
2019-04-11T08:02:18.733Z,21.40
2019-04-11T08:04:55.755Z,20.13
2019-04-11T08:07:26.625Z,19.33
2019-04-11T08:09:54.973Z,20.83
2019-04-11T08:12:25.845Z,21.50
2019-04-11T08:14:55.044Z,20.92
2019-04-11T08:17:35.512Z,21.27
2019-04-11T08:19:55.874Z,20.30
2019-04-11T08:22:36.135Z,20.37
2019-04-11T08:25:22.940Z,20.77
2019-04-11T08:27:59.262Z,19.60
2019-04-11T08:30:22.476Z,21.33
2019-04-11T08:33:00.339Z,19.70
2019-04-11T08:35:37.620Z,19.00
2019-04-11T08:38:12.031Z,18.90
2019-04-11T08:40:42.964Z,20.52
2019-04-11T08:43:11.193Z,19.23
2019-04-11T08:45:54.278Z,19.27
2019-04-11T08:48:21.232Z,19.50
2019-04-11T08:50:58.859Z,19.12
2019-04-11T08:53:45.066Z,20.60
2019-04-11T08:56:12.864Z,21.15
2019-04-11T08:58:46.948Z,21.42
2019-04-11T09:01:18.253Z,19.65
2019-04-11T09:04:07.355Z,19.62
2019-04-11T09:06:32.858Z,18.48
2019-04-11T09:09:18.723Z,17.05
2019-04-11T09:11:47.155Z,16.07
2019-04-11T09:14:32.505Z,17.70
2019-04-11T09:17:01.665Z,16.30
2019-04-11T09:19:47.294Z,18.17
2019-04-11T09:22:18.437Z,17.02
2019-04-11T09:25:03.419Z,17.80
2019-04-11T09:27:49.001Z,17.42
2019-04-11T09:30:17.527Z,14.98
2019-04-11T09:33:02.834Z,14.75
2019-04-11T09:35:39.961Z,16.27
2019-04-11T09:38:20.200Z,15.13
2019-04-11T09:40:52.105Z,17.00
2019-04-11T09:43:26.263Z,18.92
2019-04-11T09:45:57.696Z,20.17
2019-04-11T09:48:42.641Z,19.00
2019-04-11T09:51:11.439Z,21.65
2019-04-11T09:53:40.909Z,19.75
2019-04-11T09:56:21.063Z,16.87
2019-04-11T09:58:49.702Z,24.47
2019-04-11T10:01:18.219Z,18.92
2019-04-11T10:03:45.972Z,21.60
2019-04-11T10:06:19.746Z,21.37
2019-04-11T10:08:48.875Z,21.65
2019-04-11T10:11:30.338Z,20.60
2019-04-11T10:14:01.708Z,24.75
2019-04-11T10:16:29.888Z,23.98
2019-04-11T10:19:15.681Z,20.45
2019-04-11T10:21:56.441Z,21.35
2019-04-11T10:24:30.695Z,22.58
2019-04-11T10:27:14.336Z,25.23
2019-04-11T10:29:52.576Z,21.57
2019-04-11T10:32:23.671Z,20.45
2019-04-11T10:34:52.182Z,19.82
2019-04-11T10:37:20.256Z,17.85
2019-04-11T10:39:54.071Z,18.65
2019-04-11T10:42:22.181Z,25.52
2019-04-11T10:44:56.384Z,22.15
2019-04-11T10:47:25.020Z,17.65
2019-04-11T10:50:09.716Z,18.75
2019-04-11T10:52:38.380Z,22.50
2019-04-11T10:55:13.931Z,23.18
2019-04-11T10:57:44.788Z,19.52
2019-04-11T11:00:14.243Z,21.48
2019-04-11T11:02:49.391Z,21.42
2019-04-11T11:05:19.118Z,19.42
2019-04-11T11:07:47.343Z,18.45
2019-04-11T11:10:17.979Z,17.65
2019-04-11T11:13:02.846Z,21.30
2019-04-11T11:15:31.646Z,21.80
2019-04-11T11:18:44.041Z,18.87
2019-04-11T11:20:53.582Z,18.92
2019-04-11T11:23:33.705Z,22.02
2019-04-11T11:26:02.801Z,23.85
2019-04-11T11:28:36.736Z,19.35
2019-04-11T11:31:07.591Z,19.77
2019-04-11T11:33:34.841Z,17.70
2019-04-11T11:36:21.439Z,21.10
2019-04-11T11:38:55.856Z,21.52
2019-04-11T11:41:40.788Z,17.30
2019-04-11T11:44:09.748Z,22.40
2019-04-11T11:46:50.144Z,19.42
2019-04-11T11:49:36.280Z,19.32
2019-04-11T11:52:04.791Z,22.05
2019-04-11T11:54:35.732Z,25.75
2019-04-11T11:57:04.603Z,23.35
2019-04-11T11:59:32.875Z,24.65
2019-04-11T12:02:02.265Z,19.55
2019-04-11T12:04:35.306Z,24.25
2019-04-11T12:07:03.596Z,23.00
2019-04-11T12:09:34.242Z,17.42
2019-04-11T12:12:08.589Z,21.73
2019-04-11T12:14:53.795Z,23.95
2019-04-11T12:17:33.575Z,21.12
2019-04-11T12:20:06.490Z,21.70
2019-04-11T12:22:31.094Z,22.95
2019-04-11T12:24:59.259Z,23.10
2019-04-11T12:27:44.067Z,21.30
2019-04-11T12:30:27.954Z,22.62
2019-04-11T12:32:57.065Z,23.67
2019-04-11T12:35:26.276Z,26.05
2019-04-11T12:38:11.705Z,25.92
2019-04-11T12:40:42.708Z,25.25
2019-04-11T12:43:10.943Z,23.12
2019-04-11T12:45:57.293Z,23.62
2019-04-11T12:48:25.450Z,21.55
2019-04-11T12:50:56.222Z,29.35
2019-04-11T12:53:22.507Z,23.98
2019-04-11T12:56:02.946Z,21.33
2019-04-11T12:58:30.988Z,21.10
2019-04-11T13:01:05.158Z,17.90
2019-04-11T13:03:49.779Z,15.72
2019-04-11T13:06:35.240Z,24.02
2019-04-11T13:09:13.817Z,26.40
2019-04-11T13:11:44.934Z,24.10
2019-04-11T13:14:25.115Z,19.77
2019-04-11T13:17:08.261Z,28.52
2019-04-11T13:19:36.378Z,25.17
2019-04-11T13:22:05.226Z,26.35
2019-04-11T13:24:36.323Z,22.70
2019-04-11T13:27:13.732Z,22.17
2019-04-11T13:29:44.906Z,24.77
2019-04-11T13:32:28.156Z,23.77
2019-04-11T13:34:59.476Z,23.75
2019-04-11T13:37:44.101Z,27.73
2019-04-11T13:40:12.433Z,28.70
2019-04-11T13:42:56.630Z,27.27
2019-04-11T13:45:24.080Z,26.62
2019-04-11T13:48:08.506Z,25.08
2019-04-11T13:50:35.560Z,22.87
2019-04-11T13:53:20.106Z,27.95
2019-04-11T13:55:46.310Z,24.70
2019-04-11T13:58:32.210Z,24.90
2019-04-11T14:00:58.715Z,25.23
2019-04-11T14:03:38.808Z,25.95
2019-04-11T14:06:09.904Z,26.68
2019-04-11T14:08:41.020Z,28.92
2019-04-11T14:11:09.136Z,26.70
2019-04-11T14:13:40.031Z,25.08
2019-04-11T14:16:10.157Z,56.20
2019-04-11T14:18:41.451Z,96.55
2019-04-11T14:21:17.210Z,46.68
2019-04-11T14:23:51.115Z,28.07
2019-04-11T14:26:21.962Z,29.65
2019-04-11T14:28:49.332Z,25.60
2019-04-11T14:31:33.852Z,25.00
2019-04-11T14:34:18.646Z,29.42
2019-04-11T14:36:49.729Z,25.08
2019-04-11T14:39:17.923Z,21.77
2019-04-11T14:41:59.801Z,24.12
2019-04-11T14:44:27.964Z,25.02
2019-04-11T14:46:56.014Z,21.85
2019-04-11T14:49:22.451Z,24.57
2019-04-11T14:52:06.929Z,26.27
2019-04-11T14:54:35.043Z,23.92
2019-04-11T14:57:03.137Z,24.32
2019-04-11T14:59:34.218Z,24.23
2019-04-11T15:02:11.247Z,22.95
2019-04-11T15:04:43.939Z,21.45
2019-04-11T15:07:12.827Z,24.02
2019-04-11T15:09:58.486Z,26.82
2019-04-11T15:12:26.616Z,24.57
2019-04-11T15:14:57.626Z,25.55
2019-04-11T15:17:26.434Z,24.30
2019-04-11T15:19:55.178Z,24.82
2019-04-11T15:22:35.688Z,23.45
2019-04-11T15:25:14.404Z,24.35
2019-04-11T15:27:54.426Z,21.37
2019-04-11T15:30:22.493Z,22.93
2019-04-11T15:32:50.630Z,25.77
2019-04-11T15:35:16.774Z,24.77
2019-04-11T15:38:01.203Z,23.18
2019-04-11T15:40:27.442Z,23.95
2019-04-11T15:43:12.359Z,22.80
2019-04-11T15:45:40.521Z,21.82
2019-04-11T15:48:25.120Z,19.35
2019-04-11T15:51:10.435Z,22.02
2019-04-11T15:53:47.583Z,23.77
2019-04-11T15:56:32.414Z,23.83
2019-04-11T15:59:12.989Z,23.77
2019-04-11T16:01:48.650Z,24.85
2019-04-11T16:04:28.987Z,23.52
2019-04-11T16:07:12.426Z,23.45
2019-04-11T16:09:43.755Z,22.40
2019-04-11T16:12:18.090Z,23.00
2019-04-11T16:14:44.503Z,23.55
2019-04-11T16:17:24.918Z,21.65
2019-04-11T16:19:53.065Z,20.82
2019-04-11T16:22:24.688Z,18.92
2019-04-11T16:24:51.279Z,23.07
2019-04-11T16:27:19.389Z,21.25
2019-04-11T16:29:47.521Z,18.12
2019-04-11T16:32:14.894Z,20.75
2019-04-11T16:34:48.609Z,19.75
2019-04-11T16:37:17.553Z,24.07
2019-04-11T16:40:00.082Z,23.02
2019-04-11T16:42:28.123Z,21.45
2019-04-11T16:45:08.498Z,20.75
2019-04-11T16:47:48.545Z,22.80
2019-04-11T16:50:15.389Z,22.60
2019-04-11T16:52:41.796Z,20.40
2019-04-11T16:55:10.104Z,18.87
2019-04-11T16:57:36.250Z,23.52
2019-04-11T17:00:09.256Z,20.17
2019-04-11T17:02:35.430Z,22.75
2019-04-11T17:05:01.662Z,23.18
2019-04-11T17:07:46.444Z,22.77
2019-04-11T17:10:14.659Z,22.15
2019-04-11T17:12:40.908Z,22.87
2019-04-11T17:15:08.130Z,22.22
2019-04-11T17:17:34.437Z,18.67
2019-04-11T17:20:00.582Z,22.65
2019-04-11T17:22:28.418Z,22.15
2019-04-11T17:24:54.868Z,21.35
2019-04-11T17:27:23.178Z,22.42
2019-04-11T17:29:49.240Z,22.75
2019-04-11T17:32:15.401Z,23.75
2019-04-11T17:34:41.699Z,22.80
2019-04-11T17:37:07.835Z,19.92
2019-04-11T17:39:36.628Z,18.60
2019-04-11T17:42:02.098Z,18.35
2019-04-11T17:44:28.327Z,20.17
2019-04-11T17:46:56.439Z,21.10
2019-04-11T17:49:22.631Z,21.87
2019-04-11T17:51:55.638Z,23.95
2019-04-11T17:54:16.940Z,23.07
2019-04-11T17:56:43.220Z,25.95
2019-04-11T17:59:12.047Z,30.07
2019-04-11T18:01:38.014Z,29.00
2019-04-11T18:04:04.821Z,25.70
2019-04-11T18:06:30.960Z,27.45
2019-04-11T18:08:57.189Z,27.30
2019-04-11T18:11:25.670Z,24.10
2019-04-11T18:13:51.669Z,24.75
2019-04-11T18:16:17.834Z,25.92
2019-04-11T18:18:44.173Z,24.10
2019-04-11T18:21:10.801Z,22.70
2019-04-11T18:23:37.059Z,22.65
2019-04-11T18:26:04.007Z,22.55
2019-04-11T18:28:30.415Z,20.67
2019-04-11T18:30:56.565Z,22.13
2019-04-11T18:33:22.956Z,21.07
2019-04-11T18:35:49.269Z,21.53
2019-04-11T18:38:15.634Z,21.33
2019-04-11T18:40:42.059Z,19.80
2019-04-11T18:43:08.274Z,20.37
2019-04-11T18:45:34.558Z,19.50
2019-04-11T18:48:01.157Z,20.60
2019-04-11T18:50:28.925Z,19.83
2019-04-11T18:52:59.256Z,20.40
2019-04-11T18:55:23.436Z,20.33
2019-04-11T18:57:49.649Z,18.07
2019-04-11T19:00:18.304Z,18.70
2019-04-11T19:02:44.789Z,17.97
2019-04-11T19:05:13.352Z,18.03
2019-04-11T19:07:42.809Z,16.90
2019-04-11T19:10:08.289Z,18.60
2019-04-11T19:12:34.641Z,17.43
2019-04-11T19:15:00.835Z,15.57
2019-04-11T19:17:27.080Z,20.47
2019-04-11T19:19:53.386Z,18.00
2019-04-11T19:22:23.533Z,18.10
2019-04-11T19:24:47.546Z,19.13
2019-04-11T19:27:14.066Z,18.17
2019-04-11T19:29:42.164Z,18.33
2019-04-11T19:32:08.472Z,19.77
2019-04-11T19:34:35.069Z,17.57
2019-04-11T19:37:03.654Z,18.23
2019-04-11T19:39:29.595Z,17.23
2019-04-11T19:41:55.760Z,16.13
2019-04-11T19:44:21.873Z,16.93
2019-04-11T19:46:48.443Z,16.87
2019-04-11T19:49:16.038Z,17.10
2019-04-11T19:51:42.203Z,17.40
2019-04-11T19:54:08.523Z,18.00
2019-04-11T19:56:36.692Z,18.77
2019-04-11T19:59:03.028Z,17.43
2019-04-11T20:01:29.188Z,18.10
2019-04-11T20:03:55.517Z,18.30
2019-04-11T20:06:21.754Z,18.13
2019-04-11T20:08:47.962Z,17.50
2019-04-11T20:11:14.145Z,16.53
2019-04-11T20:13:40.399Z,17.00
2019-04-11T20:16:06.530Z,16.67
2019-04-11T20:18:32.752Z,17.80
2019-04-11T20:20:58.957Z,17.70
2019-04-11T20:23:25.218Z,18.50
2019-04-11T20:25:51.427Z,17.80
2019-04-11T20:28:19.946Z,17.03
2019-04-11T20:30:45.603Z,16.03
2019-04-11T20:33:11.888Z,16.10
2019-04-11T20:35:40.024Z,16.53
2019-04-11T20:38:06.232Z,16.20
2019-04-11T20:40:33.226Z,17.03
2019-04-11T20:42:59.407Z,17.23
2019-04-11T20:45:28.502Z,15.60
2019-04-11T20:47:55.372Z,16.90
2019-04-11T20:50:21.590Z,17.20
2019-04-11T20:52:47.743Z,15.23
2019-04-11T20:55:13.902Z,17.10
2019-04-11T20:57:41.041Z,15.50
2019-04-11T21:00:12.066Z,16.40
2019-04-11T21:02:35.685Z,15.80
2019-04-11T21:05:02.065Z,16.87
2019-04-11T21:07:31.538Z,16.90
2019-04-11T21:09:56.335Z,15.83
2019-04-11T21:12:22.615Z,16.07
2019-04-11T21:14:48.851Z,14.43
2019-04-11T21:17:15.070Z,15.20
2019-04-11T21:19:41.216Z,15.20
2019-04-11T21:22:07.328Z,15.63
2019-04-11T21:24:33.587Z,13.33
2019-04-11T21:26:59.807Z,14.53
2019-04-11T21:29:30.000Z,14.10
2019-04-11T21:31:54.041Z,13.03
2019-04-11T21:34:20.421Z,15.53
2019-04-11T21:36:46.659Z,14.63
2019-04-11T21:39:12.806Z,14.03
2019-04-11T21:41:38.972Z,14.77
2019-04-11T21:44:06.494Z,16.73
2019-04-11T21:46:37.401Z,17.33
2019-04-11T21:49:01.180Z,15.10
2019-04-11T21:51:27.586Z,14.97
2019-04-11T21:53:53.829Z,14.83
2019-04-11T21:56:19.966Z,14.83
2019-04-11T21:58:49.947Z,14.63
2019-04-11T22:01:15.428Z,14.13
2019-04-11T22:03:41.955Z,13.90
2019-04-11T22:06:08.213Z,13.80
2019-04-11T22:08:35.121Z,14.17
2019-04-11T22:11:03.086Z,14.23
2019-04-11T22:13:29.477Z,13.97
2019-04-11T22:15:55.687Z,13.47
2019-04-11T22:18:22.090Z,12.63
2019-04-11T22:20:48.426Z,11.93
2019-04-11T22:23:14.557Z,12.83
2019-04-11T22:25:40.886Z,12.17
2019-04-11T22:28:07.134Z,13.07
2019-04-11T22:30:33.564Z,14.90
2019-04-11T22:33:01.709Z,13.47
2019-04-11T22:35:28.998Z,13.87
2019-04-11T22:37:59.670Z,12.83
2019-04-11T22:40:23.704Z,13.07
2019-04-11T22:42:50.046Z,13.80
2019-04-11T22:45:16.282Z,14.07
2019-04-11T22:47:42.429Z,16.03
2019-04-11T22:50:10.123Z,15.47
2019-04-11T22:52:36.934Z,14.80
2019-04-11T22:55:04.673Z,14.80
2019-04-11T22:57:30.921Z,13.80
2019-04-11T22:59:57.208Z,14.53
2019-04-11T23:02:28.043Z,15.67
2019-04-11T23:04:54.303Z,14.13
2019-04-11T23:07:20.537Z,15.30
2019-04-11T23:09:48.908Z,15.07
2019-04-11T23:12:15.228Z,16.33
2019-04-11T23:14:45.398Z,15.03
2019-04-11T23:17:11.829Z,14.57
2019-04-11T23:19:38.289Z,14.40
2019-04-11T23:22:04.420Z,14.40
2019-04-11T23:24:30.561Z,13.57
2019-04-11T23:26:56.911Z,13.80
2019-04-11T23:29:23.131Z,14.50
2019-04-11T23:31:50.855Z,15.47
2019-04-11T23:34:19.728Z,14.03
2019-04-11T23:36:45.556Z,14.70
2019-04-11T23:39:11.835Z,13.80
2019-04-11T23:41:38.167Z,15.00
2019-04-11T23:44:04.404Z,14.97
2019-04-11T23:46:30.723Z,14.07
2019-04-11T23:48:56.880Z,13.77
2019-04-11T23:51:26.247Z,13.83
2019-04-11T23:53:51.377Z,15.37
2019-04-11T23:56:17.577Z,15.67
2019-04-11T23:58:43.711Z,15.67
